Time;durP1;ratioP1;P1;durP2;ratioP2;P2;SDS_P1;SDS_P2;PMS_P1;PMS_P2;Temp;Humidity;BMP_temperature;BMP_pressure;BME280_temperature;BME280_humidity;BME280_pressure;Samples;Min_cycle;Max_cycle;Signal;HPM_P1;HPM_P2
2022/10/20 00:00:48;;;;;;;11.32;7.93;;;;;;;10.13;100.00;101508.13;5029379;28;20596;-68
2022/10/20 00:03:13;;;;;;;11.30;7.03;;;;;;;10.08;100.00;101500.63;5032517;28;20060;-68
2022/10/20 00:05:39;;;;;;;14.98;8.07;;;;;;;10.07;100.00;101500.81;5031000;28;20445;-68
2022/10/20 00:08:04;;;;;;;14.15;8.10;;;;;;;10.01;100.00;101494.38;5031211;28;20064;-68
2022/10/20 00:10:30;;;;;;;15.07;8.07;;;;;;;10.06;100.00;101488.34;5031420;28;20484;-68
2022/10/20 00:12:55;;;;;;;14.23;8.73;;;;;;;10.00;100.00;101483.75;5032306;28;20021;-68
2022/10/20 00:15:20;;;;;;;18.40;8.40;;;;;;;9.98;100.00;101491.22;5032512;28;20523;-68
2022/10/20 00:17:46;;;;;;;15.57;8.32;;;;;;;9.99;100.00;101491.03;5029835;28;20120;-68
2022/10/20 00:20:11;;;;;;;14.90;8.15;;;;;;;9.98;100.00;101489.38;5029858;28;20039;-67
2022/10/20 00:22:36;;;;;;;14.93;8.10;;;;;;;9.98;100.00;101489.38;5016705;28;20026;-68
2022/10/20 00:25:02;;;;;;;15.93;8.70;;;;;;;9.96;100.00;101493.31;5013047;28;20026;-68
2022/10/20 00:27:27;;;;;;;12.25;8.05;;;;;;;9.95;100.00;101492.50;5016632;28;20441;-68
2022/10/20 00:29:52;;;;;;;12.43;8.65;;;;;;;9.93;100.00;101495.41;5029491;28;20017;-68
2022/10/20 00:32:17;;;;;;;14.35;8.65;;;;;;;9.90;100.00;101479.59;5016596;28;20512;-68
2022/10/20 00:34:43;;;;;;;14.90;9.15;;;;;;;9.89;100.00;101468.97;5016367;28;20022;-68
2022/10/20 00:37:08;;;;;;;15.00;9.48;;;;;;;9.89;100.00;101469.81;5016550;28;20036;-68
2022/10/20 00:39:33;;;;;;;19.88;9.35;;;;;;;9.85;100.00;101473.13;5029432;28;20264;-68
2022/10/20 00:42:02;;;;;;;18.25;9.40;;;;;;;9.82;100.00;101466.25;5034593;28;20071;-68
2022/10/20 00:44:51;;;;;;;13.07;9.18;;;;;;;9.86;100.00;101458.59;5034736;28;20408;-68
2022/10/20 00:47:34;;;;;;;13.88;8.80;;;;;;;9.82;100.00;101460.84;5034788;28;20393;-68
2022/10/20 00:50:14;;;;;;;15.20;9.25;;;;;;;9.85;100.00;101448.78;5033732;28;20030;-68
2022/10/20 00:52:41;;;;;;;14.60;9.73;;;;;;;9.82;100.00;101446.50;5036140;28;20041;-68
2022/10/20 00:55:10;;;;;;;14.23;9.57;;;;;;;9.81;100.00;101458.34;5035970;28;20036;-68
2022/10/20 00:57:36;;;;;;;14.52;9.45;;;;;;;9.86;100.00;101458.59;5035955;28;20021;-68
2022/10/20 01:00:01;;;;;;;12.77;9.35;;;;;;;9.85;100.00;101454.19;5024446;28;20036;-68
2022/10/20 01:02:27;;;;;;;15.35;10.02;;;;;;;9.85;100.00;101459.59;5033578;28;20017;-68
2022/10/20 01:04:52;;;;;;;15.48;10.10;;;;;;;9.88;100.00;101459.19;5035645;28;20060;-68
2022/10/20 01:07:17;;;;;;;13.80;9.65;;;;;;;9.85;100.00;101441.50;5035718;28;20029;-68
2022/10/20 01:09:43;;;;;;;18.70;9.93;;;;;;;9.82;100.00;101438.41;5031207;28;20037;-68
2022/10/20 01:12:30;;;;;;;14.65;9.77;;;;;;;9.88;100.00;101427.59;5015887;28;20057;-68
2022/10/20 01:15:10;;;;;;;16.85;10.15;;;;;;;9.88;100.00;101414.06;5015328;28;20030;-68
2022/10/20 01:17:42;;;;;;;17.67;10.93;;;;;;;9.87;100.00;101404.31;5018289;28;20026;-68
2022/10/20 01:20:25;;;;;;;15.27;10.48;;;;;;;9.87;100.00;101395.34;5033368;28;20491;-68
2022/10/20 01:23:26;;;;;;;16.10;10.52;;;;;;;9.88;100.00;101394.31;5035501;28;20025;-68
2022/10/20 01:26:29;;;;;;;17.17;10.82;;;;;;;9.92;100.00;101392.88;5034942;28;20528;-68
2022/10/20 01:28:58;;;;;;;16.20;11.30;;;;;;;9.88;100.00;101378.09;5033233;28;20048;-68
2022/10/20 01:31:51;;;;;;;15.73;10.85;;;;;;;9.89;100.00;101377.06;5035253;28;20040;-68
2022/10/20 01:34:37;;;;;;;16.60;11.35;;;;;;;9.87;100.00;101371.88;5034971;28;20056;-68
2022/10/20 01:37:10;;;;;;;17.00;10.82;;;;;;;9.85;100.00;101378.50;5033517;28;20026;-68
2022/10/20 01:39:57;;;;;;;14.77;11.00;;;;;;;9.85;100.00;101383.91;5015520;28;20083;-68
2022/10/20 01:42:25;;;;;;;16.27;11.25;;;;;;;9.87;100.00;101379.13;5015115;28;20029;-68
2022/10/20 01:44:54;;;;;;;16.00;11.23;;;;;;;9.83;100.00;101381.44;5015001;28;20026;-68
2022/10/20 01:47:23;;;;;;;15.82;11.07;;;;;;;9.86;100.00;101386.41;5014171;28;20064;-68
2022/10/20 01:49:49;;;;;;;18.30;11.57;;;;;;;9.84;100.00;101387.66;5014691;28;20033;-68
2022/10/20 01:52:14;;;;;;;19.75;11.35;;;;;;;9.87;100.00;101384.53;5015122;28;20026;-68
2022/10/20 01:54:40;;;;;;;18.67;11.15;;;;;;;9.87;100.00;101381.84;5014832;28;20037;-68
2022/10/20 01:57:29;;;;;;;16.58;10.88;;;;;;;9.87;100.00;101382.69;5014885;28;20029;-68
2022/10/20 02:00:05;;;;;;;16.33;10.75;;;;;;;9.83;100.00;101375.16;5029151;28;20037;-68
2022/10/20 02:03:08;;;;;;;19.98;11.07;;;;;;;9.86;100.00;101382.88;5019121;28;20033;-68
2022/10/20 02:05:48;;;;;;;15.77;10.88;;;;;;;9.80;100.00;101384.53;5033188;28;20464;-68
2022/10/20 02:08:35;;;;;;;17.80;10.80;;;;;;;9.81;100.00;101369.16;5032180;28;20399;-68
2022/10/20 02:11:04;;;;;;;17.00;11.27;;;;;;;9.79;100.00;101363.94;5033459;28;20463;-68
2022/10/20 02:13:31;;;;;;;15.23;11.07;;;;;;;9.74;100.00;101361.03;5033705;28;20031;-67
2022/10/20 02:16:00;;;;;;;15.50;11.10;;;;;;;9.73;100.00;101360.19;5034376;28;20049;-68
2022/10/20 02:18:32;;;;;;;19.13;11.18;;;;;;;9.74;100.00;101355.63;5033062;28;20029;-68
2022/10/20 02:21:00;;;;;;;17.02;11.43;;;;;;;9.70;100.00;101347.09;5033828;28;20029;-68
2022/10/20 02:23:29;;;;;;;14.52;11.23;;;;;;;9.66;100.00;101337.75;5016829;28;20036;-68
2022/10/20 02:25:59;;;;;;;18.30;11.38;;;;;;;9.64;100.00;101334.41;5014203;28;20026;-68
2022/10/20 02:28:25;;;;;;;15.27;10.90;;;;;;;9.64;100.00;101334.41;5022950;28;20419;-68
2022/10/20 02:30:51;;;;;;;17.55;11.55;;;;;;;9.69;100.00;101328.38;5034170;28;20044;-68
2022/10/20 02:33:18;;;;;;;18.35;11.93;;;;;;;9.61;100.00;101318.63;5033373;28;20033;-68
2022/10/20 02:35:50;;;;;;;15.50;11.43;;;;;;;9.62;100.00;101317.59;5033902;28;20527;-68
2022/10/20 02:38:15;;;;;;;21.90;12.32;;;;;;;9.58;100.00;101308.22;5032623;28;20080;-68
2022/10/20 02:40:40;;;;;;;18.63;12.02;;;;;;;9.60;100.00;101305.31;5033985;28;20461;-68
2022/10/20 02:43:06;;;;;;;18.35;12.38;;;;;;;9.61;100.00;101298.88;5032577;28;20032;-68
2022/10/20 02:45:31;;;;;;;20.13;12.63;;;;;;;9.56;100.00;101288.69;5033833;28;20029;-68
2022/10/20 02:47:56;;;;;;;19.13;11.68;;;;;;;9.55;100.00;101289.72;5031466;28;20423;-68
2022/10/20 02:50:22;;;;;;;17.10;12.65;;;;;;;9.58;100.00;101281.22;5033789;28;20060;-68
2022/10/20 02:52:47;;;;;;;17.10;12.55;;;;;;;9.54;100.00;101272.69;5022393;28;20080;-68
2022/10/20 02:55:12;;;;;;;20.60;12.98;;;;;;;9.54;100.00;101275.41;5013979;28;20026;-68
2022/10/20 02:57:38;;;;;;;19.05;12.15;;;;;;;9.54;100.00;101263.75;5013393;28;20030;-67
2022/10/20 03:00:05;;;;;;;17.40;13.30;;;;;;;9.57;100.00;101260.63;5013668;28;20357;-68
2022/10/20 03:02:30;;;;;;;19.00;12.80;;;;;;;9.58;100.00;101254.19;5020614;28;20091;-67
2022/10/20 03:04:55;;;;;;;19.73;13.35;;;;;;;9.59;100.00;101255.88;5033213;28;20029;-68
2022/10/20 03:07:21;;;;;;;17.92;12.82;;;;;;;9.55;100.00;101249.19;5033583;28;20025;-68
2022/10/20 03:09:46;;;;;;;17.63;13.40;;;;;;;9.56;100.00;101245.47;5031183;28;20120;-67
2022/10/20 03:12:11;;;;;;;21.23;13.27;;;;;;;9.59;100.00;101242.34;5031969;28;20091;-68
2022/10/20 03:14:37;;;;;;;17.63;13.55;;;;;;;9.62;100.00;101239.22;5033021;28;20040;-68
2022/10/20 03:17:02;;;;;;;20.52;13.82;;;;;;;9.63;100.00;101227.38;5033139;28;20080;-68
2022/10/20 03:19:27;;;;;;;17.23;13.65;;;;;;;9.64;100.00;101228.22;5031773;28;20029;-68
2022/10/20 03:21:53;;;;;;;20.42;14.10;;;;;;;9.68;100.00;101232.16;5029824;28;20042;-68
2022/10/20 03:24:18;;;;;;;18.80;14.63;;;;;;;9.67;100.00;101231.31;5013171;28;20029;-68
2022/10/20 03:26:43;;;;;;;20.90;14.50;;;;;;;9.72;100.00;101223.44;5013193;28;20054;-67
2022/10/20 03:29:08;;;;;;;21.70;14.98;;;;;;;9.71;100.00;101227.16;5025745;28;20041;-68
2022/10/20 03:31:34;;;;;;;22.75;15.25;;;;;;;9.74;100.00;101218.63;5033041;28;20112;-68
2022/10/20 03:33:59;;;;;;;20.25;14.75;;;;;;;9.76;100.00;101215.72;5031649;28;20025;-68
2022/10/20 03:36:24;;;;;;;20.17;14.90;;;;;;;9.81;100.00;101220.50;5032954;28;20444;-68
2022/10/20 03:38:50;;;;;;;23.08;14.98;;;;;;;9.82;100.00;101219.47;5031270;28;20033;-68
2022/10/20 03:41:15;;;;;;;22.92;15.32;;;;;;;9.81;100.00;101213.19;5031633;28;20052;-68
2022/10/20 03:43:41;;;;;;;23.48;14.48;;;;;;;9.85;100.00;101210.94;5012582;28;20022;-68
2022/10/20 03:46:09;;;;;;;24.45;15.82;;;;;;;9.86;100.00;101212.59;5011569;28;20025;-68
2022/10/20 03:48:35;;;;;;;24.95;16.25;;;;;;;9.87;100.00;101211.53;5036084;28;20380;-68
2022/10/20 03:51:01;;;;;;;20.65;14.93;;;;;;;9.92;100.00;101201.75;5032562;28;20058;-68
2022/10/20 03:53:27;;;;;;;24.48;15.73;;;;;;;9.91;100.00;101197.38;5031464;28;20100;-68
2022/10/20 03:55:53;;;;;;;22.55;17.45;;;;;;;9.92;100.00;101185.53;5031211;28;20365;-68
2022/10/20 03:58:18;;;;;;;27.15;16.73;;;;;;;9.92;100.00;101190.94;5025396;28;20033;-68
2022/10/20 04:00:44;;;;;;;21.55;16.23;;;;;;;9.94;100.00;101193.44;5010303;28;20033;-68
2022/10/20 04:03:10;;;;;;;22.65;16.00;;;;;;;9.96;100.00;101199.44;5028155;28;20453;-68
2022/10/20 04:05:35;;;;;;;23.05;16.60;;;;;;;9.96;100.00;101190.50;5032534;28;20028;-68
2022/10/20 04:08:00;;;;;;;25.55;16.02;;;;;;;10.03;100.00;101188.63;5028059;28;20053;-68
2022/10/20 04:10:25;;;;;;;23.73;16.13;;;;;;;10.00;100.00;101187.16;5012862;28;20025;-68
2022/10/20 04:12:51;;;;;;;20.73;15.90;;;;;;;10.05;100.00;101179.25;5026497;28;20036;-68
2022/10/20 04:15:19;;;;;;;22.67;15.95;;;;;;;10.06;100.00;101180.91;5032278;28;20030;-68
2022/10/20 04:17:44;;;;;;;24.98;16.90;;;;;;;10.08;100.00;101176.13;5031391;28;20041;-68
2022/10/20 04:20:09;;;;;;;23.27;15.90;;;;;;;10.11;100.00;101162.19;5032493;28;20037;-68
2022/10/20 04:22:35;;;;;;;21.55;15.93;;;;;;;10.15;100.00;101164.47;5030649;28;20117;-68
2022/10/20 04:25:00;;;;;;;23.25;15.93;;;;;;;10.18;100.00;101153.22;5032417;28;20052;-68
2022/10/20 04:27:27;;;;;;;22.17;16.83;;;;;;;10.20;100.00;101156.53;5031252;28;20045;-68
2022/10/20 04:29:52;;;;;;;22.73;17.05;;;;;;;10.23;100.00;101156.91;5032078;28;20052;-68
2022/10/20 04:32:17;;;;;;;31.92;17.38;;;;;;;10.27;100.00;101150.03;5019531;28;20453;-68
2022/10/20 04:34:42;;;;;;;24.95;16.70;;;;;;;10.28;100.00;101140.88;5012620;28;20017;-68
2022/10/20 04:37:08;;;;;;;25.45;16.40;;;;;;;10.31;100.00;101138.78;5011585;28;20037;-68
2022/10/20 04:39:33;;;;;;;20.42;16.95;;;;;;;10.34;100.00;101147.34;5012616;28;20469;-68
2022/10/20 04:41:58;;;;;;;18.17;15.45;;;;;;;10.36;100.00;101134.41;5022818;28;20029;-68
2022/10/20 04:44:24;;;;;;;25.73;16.38;;;;;;;10.37;100.00;101135.25;5032311;28;20473;-68
2022/10/20 04:46:49;;;;;;;22.42;15.82;;;;;;;10.40;100.00;101135.66;5030977;28;20021;-68
2022/10/20 04:49:14;;;;;;;23.33;15.98;;;;;;;10.42;100.00;101121.91;5032001;28;20029;-68
2022/10/20 04:51:40;;;;;;;23.42;15.55;;;;;;;10.44;100.00;101112.50;5031052;28;20527;-68
2022/10/20 04:54:05;;;;;;;23.02;15.23;;;;;;;10.48;100.00;101117.47;5031915;28;20032;-68
2022/10/20 04:56:30;;;;;;;20.65;15.52;;;;;;;10.45;100.00;101114.19;5031327;28;20029;-68
2022/10/20 04:58:57;;;;;;;22.40;14.57;;;;;;;10.48;100.00;101106.66;5029974;28;20022;-68
2022/10/20 05:01:26;;;;;;;20.65;15.25;;;;;;;10.48;100.00;101112.91;5029573;28;20057;-68
2022/10/20 05:03:52;;;;;;;24.40;16.02;;;;;;;10.50;100.00;101113.53;5032166;28;20036;-68
2022/10/20 05:06:21;;;;;;;22.83;16.35;;;;;;;10.52;100.00;101107.88;5027272;28;20022;-68
2022/10/20 05:08:48;;;;;;;20.42;15.80;;;;;;;10.52;100.00;101118.72;5012367;28;20030;-68
2022/10/20 05:11:15;;;;;;;23.33;15.07;;;;;;;10.51;100.00;101122.47;5013614;28;20025;-68
2022/10/20 05:13:41;;;;;;;21.90;15.30;;;;;;;10.49;100.00;101132.69;5015871;28;20061;-68
2022/10/20 05:16:08;;;;;;;22.35;15.90;;;;;;;10.50;100.00;101116.22;5015404;28;20025;-68
2022/10/20 05:18:34;;;;;;;21.52;15.18;;;;;;;10.50;100.00;101096.47;5035538;28;20036;-68
2022/10/20 05:21:04;;;;;;;21.10;14.70;;;;;;;10.51;100.00;101071.03;5032734;28;20034;-68
2022/10/20 05:23:30;;;;;;;19.40;15.38;;;;;;;10.53;100.00;101085.19;5016177;28;20034;-68
2022/10/20 05:25:55;;;;;;;23.20;15.68;;;;;;;10.53;100.00;101090.63;5014982;28;20049;-68
2022/10/20 05:28:20;;;;;;;20.67;14.93;;;;;;;10.53;100.00;101096.03;5034907;28;20473;-68
2022/10/20 05:30:45;;;;;;;19.50;14.50;;;;;;;10.53;100.00;101104.16;5034364;28;20031;-68
2022/10/20 05:33:11;;;;;;;21.50;14.63;;;;;;;10.52;100.00;101103.28;5035106;28;20021;-69
2022/10/20 05:35:36;;;;;;;22.02;14.77;;;;;;;10.51;100.00;101104.38;5034972;28;20022;-68
2022/10/20 05:38:01;;;;;;;23.75;15.23;;;;;;;10.49;100.00;101108.31;5033964;28;20053;-68
2022/10/20 05:40:26;;;;;;;26.23;14.68;;;;;;;10.50;100.00;101088.34;5033732;28;20464;-69
2022/10/20 05:42:52;;;;;;;21.05;15.35;;;;;;;10.47;100.00;101070.66;5035398;28;20029;-69
2022/10/20 05:45:18;;;;;;;22.63;15.02;;;;;;;10.46;100.00;101067.16;5034804;28;20040;-69
2022/10/20 05:47:43;;;;;;;22.77;15.05;;;;;;;10.50;100.00;101077.53;5033575;28;20029;-69
2022/10/20 05:50:09;;;;;;;19.10;15.18;;;;;;;10.48;100.00;101090.44;5033821;28;20033;-69
2022/10/20 05:52:34;;;;;;;20.38;15.45;;;;;;;10.50;100.00;101099.16;5034950;28;20185;-69
2022/10/20 05:55:00;;;;;;;18.23;15.07;;;;;;;10.48;100.00;101098.53;5016106;28;20572;-69
2022/10/20 05:57:25;;;;;;;19.80;14.68;;;;;;;10.46;100.00;101093.34;5015070;28;20056;-69
2022/10/20 05:59:50;;;;;;;25.17;14.95;;;;;;;10.43;100.00;101099.19;5015075;28;20025;-69
2022/10/20 06:02:16;;;;;;;19.35;15.15;;;;;;;10.43;100.00;101094.63;5012225;28;20033;-69
2022/10/20 06:04:41;;;;;;;21.50;14.88;;;;;;;10.43;100.00;101083.81;5026121;28;20094;-69
2022/10/20 06:07:08;;;;;;;21.70;14.75;;;;;;;10.44;100.00;101093.56;5034387;28;20029;-69
2022/10/20 06:09:35;;;;;;;22.17;15.07;;;;;;;10.43;100.00;101083.81;5034389;28;20457;-69
2022/10/20 06:12:00;;;;;;;20.90;14.57;;;;;;;10.44;100.00;101080.03;5034179;28;20032;-69
2022/10/20 06:14:25;;;;;;;22.70;15.13;;;;;;;10.45;100.00;101083.59;5028588;28;20026;-69
2022/10/20 06:16:52;;;;;;;22.30;15.15;;;;;;;10.46;100.00;101086.09;5014380;28;20089;-69
2022/10/20 06:19:18;;;;;;;19.83;14.80;;;;;;;10.50;100.00;101088.34;5014447;28;20037;-69
2022/10/20 06:21:44;;;;;;;22.77;15.82;;;;;;;10.48;100.00;101096.69;5014342;28;20029;-69
2022/10/20 06:24:10;;;;;;;21.02;15.63;;;;;;;10.52;100.00;101102.47;5019304;28;20064;-69
2022/10/20 06:26:36;;;;;;;20.50;15.18;;;;;;;10.52;100.00;101102.47;5014128;28;20069;-69
2022/10/20 06:29:02;;;;;;;25.17;15.02;;;;;;;10.53;100.00;101099.56;5014040;28;20409;-69
2022/10/20 06:31:30;;;;;;;21.95;15.48;;;;;;;10.52;100.00;101084.34;5014431;28;20116;-69
2022/10/20 06:33:56;;;;;;;22.00;15.88;;;;;;;10.53;100.00;101091.44;5019106;28;20040;-69
2022/10/20 06:36:23;;;;;;;24.05;14.80;;;;;;;10.56;100.00;101085.59;5033284;28;20087;-69
2022/10/20 06:38:55;;;;;;;23.00;15.63;;;;;;;10.57;100.00;101083.72;5034051;28;20029;-69
2022/10/20 06:41:22;;;;;;;22.23;15.63;;;;;;;10.60;100.00;101081.41;5033722;28;20117;-69
2022/10/20 06:43:47;;;;;;;19.25;15.60;;;;;;;10.60;100.00;101083.28;5031959;28;20025;-69
2022/10/20 06:46:16;;;;;;;20.90;15.02;;;;;;;10.62;100.00;101081.19;5033725;28;20029;-69
2022/10/20 06:48:42;;;;;;;19.75;15.50;;;;;;;10.63;100.00;101077.44;5033877;28;20025;-69
2022/10/20 06:51:18;;;;;;;22.30;15.20;;;;;;;10.65;100.00;101069.91;5033642;28;20025;-69
2022/10/20 06:53:44;;;;;;;19.50;14.52;;;;;;;10.69;100.00;101065.72;5031786;28;20021;-69
2022/10/20 06:56:22;;;;;;;19.98;15.20;;;;;;;10.70;100.00;101067.38;5031882;28;20035;-69
2022/10/20 06:58:51;;;;;;;22.67;15.35;;;;;;;10.71;100.00;101066.31;5033794;28;20083;-69
2022/10/20 07:01:22;;;;;;;21.77;14.38;;;;;;;10.71;100.00;101058.22;5031047;28;20039;-69
2022/10/20 07:03:47;;;;;;;22.65;15.30;;;;;;;10.73;100.00;101055.28;5031596;28;20017;-69
2022/10/20 07:06:15;;;;;;;21.55;15.10;;;;;;;10.75;100.00;101054.00;5048585;28;20365;-69
2022/10/20 07:08:41;;;;;;;20.38;15.00;;;;;;;10.76;100.00;101052.94;5033465;28;20072;-69
2022/10/20 07:11:11;;;;;;;19.20;15.20;;;;;;;10.78;100.00;101069.81;5032943;28;20026;-69
2022/10/20 07:13:36;;;;;;;22.95;15.60;;;;;;;10.81;100.00;101074.78;5030698;28;20040;-69
2022/10/20 07:16:03;;;;;;;19.98;14.60;;;;;;;10.82;100.00;101070.19;5033378;28;20029;-69
2022/10/20 07:18:29;;;;;;;20.85;15.07;;;;;;;10.82;100.00;101076.44;5032011;28;20368;-69
2022/10/20 07:20:57;;;;;;;23.55;14.95;;;;;;;10.85;100.00;101069.75;5033303;28;20036;-69
2022/10/20 07:23:23;;;;;;;20.52;14.27;;;;;;;10.88;100.00;101071.19;5030373;28;20057;-69
2022/10/20 07:25:48;;;;;;;24.00;14.80;;;;;;;10.91;100.00;101068.03;5017168;28;20052;-69
2022/10/20 07:28:14;;;;;;;22.20;15.40;;;;;;;10.93;100.00;101068.63;5032662;28;20184;-70
2022/10/20 07:30:40;;;;;;;22.65;14.32;;;;;;;10.94;100.00;101073.81;5032283;28;20036;-70
2022/10/20 07:33:07;;;;;;;24.58;14.23;;;;;;;10.95;100.00;101072.78;5032634;28;20025;-70
2022/10/20 07:35:33;;;;;;;20.08;14.50;;;;;;;11.01;100.00;101072.97;5015336;28;20042;-69
2022/10/20 07:37:58;;;;;;;25.27;14.95;;;;;;;11.04;100.00;101072.50;5033068;28;20090;-69
2022/10/20 07:40:23;;;;;;;19.83;14.50;;;;;;;11.07;100.00;101072.88;5032772;28;20435;-69
2022/10/20 07:42:49;;;;;;;21.00;14.63;;;;;;;11.10;100.00;101077.84;5032914;28;20028;-69
2022/10/20 07:45:14;;;;;;;21.80;14.05;;;;;;;11.12;100.00;101080.34;5030087;28;20039;-69
2022/10/20 07:47:39;;;;;;;18.45;14.00;;;;;;;11.16;100.00;101076.97;5027341;28;20029;-70
2022/10/20 07:50:05;;;;;;;20.38;14.63;;;;;;;11.20;100.00;101076.50;5028211;28;20056;-70
2022/10/20 07:52:30;;;;;;;22.10;15.18;;;;;;;11.24;100.00;101069.59;5032763;28;20437;-69
2022/10/20 07:54:56;;;;;;;18.95;14.68;;;;;;;11.27;100.00;101067.25;5031613;28;20025;-69
2022/10/20 07:57:22;;;;;;;19.52;14.60;;;;;;;11.29;100.00;101078.72;5031521;28;20338;-69
2022/10/20 07:59:47;;;;;;;21.33;14.57;;;;;;;11.34;100.00;101075.34;5030049;28;20037;-69
2022/10/20 08:02:14;;;;;;;19.92;14.23;;;;;;;11.37;100.00;101084.88;5016145;28;20022;-69
2022/10/20 08:04:40;;;;;;;20.35;14.93;;;;;;;11.38;100.00;101079.25;5020870;28;20045;-69
2022/10/20 08:07:05;;;;;;;18.63;14.60;;;;;;;11.42;100.00;101069.63;5032645;28;20112;-69
2022/10/20 08:09:31;;;;;;;23.63;14.18;;;;;;;11.46;100.00;101073.53;5031146;28;20112;-70
2022/10/20 08:11:56;;;;;;;21.45;14.13;;;;;;;11.49;100.00;101075.78;5032554;28;20459;-69
2022/10/20 08:14:25;;;;;;;18.60;13.80;;;;;;;11.51;100.00;101073.69;5025122;28;20026;-69
2022/10/20 08:16:50;;;;;;;20.55;14.27;;;;;;;11.58;100.00;101070.06;5012782;28;20033;-69
2022/10/20 08:19:16;;;;;;;18.77;14.65;;;;;;;11.62;100.00;101060.44;5011565;28;20026;-69
2022/10/20 08:21:41;;;;;;;22.60;14.10;;;;;;;11.66;100.00;101064.34;5027978;28;20073;-69
2022/10/20 08:24:07;;;;;;;21.73;13.93;;;;;;;11.69;100.00;101067.44;5015965;28;20480;-69
2022/10/20 08:26:33;;;;;;;20.15;14.75;;;;;;;11.74;100.00;101060.50;5030909;28;20035;-73
2022/10/20 08:28:58;;;;;;;21.10;13.20;;;;;;;11.75;100.00;101054.84;5030927;28;20137;-71
2022/10/20 08:31:24;;;;;;;21.10;13.73;;;;;;;11.78;100.00;101062.53;5030315;28;20037;-71
2022/10/20 08:33:50;;;;;;;22.55;14.55;;;;;;;11.82;100.00;101062.88;5029842;28;20079;-70
2022/10/20 08:36:15;;;;;;;20.90;13.65;;;;;;;11.86;100.00;101059.50;5032140;28;20032;-70
2022/10/20 08:38:42;;;;;;;18.52;13.63;;;;;;;11.88;100.00;101070.97;5031185;28;20025;-70
2022/10/20 08:41:32;;;;;;;20.15;13.75;;;;;;;11.92;100.00;101067.78;5019243;28;20431;-72
2022/10/20 08:44:00;;;;;;;19.25;13.77;;;;;;;11.97;100.00;101067.94;5021797;28;20091;-69
2022/10/20 08:46:32;;;;;;;22.85;13.88;;;;;;;12.05;100.00;101057.63;5013468;28;20056;-69
2022/10/20 08:48:57;;;;;;;17.23;13.45;;;;;;;12.13;100.00;101056.47;5016554;28;20100;-69
2022/10/20 08:51:29;;;;;;;22.25;13.68;;;;;;;12.16;100.00;101055.19;5019371;28;20441;-69
2022/10/20 08:53:57;;;;;;;19.73;13.13;;;;;;;12.19;100.00;101052.81;5034530;28;20070;-69
2022/10/20 08:56:24;;;;;;;18.23;13.00;;;;;;;12.29;100.00;101037.88;5035737;28;20484;-69
2022/10/20 08:58:50;;;;;;;15.98;13.13;;;;;;;12.35;100.00;101039.66;5035821;28;20032;-71
2022/10/20 09:01:24;;;;;;;16.55;12.75;;;;;;;12.40;100.00;101031.66;5028790;28;20029;-70
2022/10/20 09:04:14;;;;;;;14.77;12.70;;;;;;;12.47;100.00;101032.38;5022484;28;20022;-70
2022/10/20 09:06:42;;;;;;;19.10;12.88;;;;;;;12.52;100.00;101045.25;5016389;28;20025;-70
2022/10/20 09:09:13;;;;;;;16.45;12.10;;;;;;;12.54;100.00;101030.38;5015966;28;20022;-69
2022/10/20 09:11:39;;;;;;;16.48;12.90;;;;;;;12.59;100.00;101030.50;5015888;28;20022;-70
2022/10/20 09:14:07;;;;;;;21.52;12.80;;;;;;;12.63;100.00;101039.00;5014090;28;20033;-70
2022/10/20 09:16:37;;;;;;;20.48;12.13;;;;;;;12.67;100.00;101037.47;5032544;28;20411;-72
2022/10/20 09:19:04;;;;;;;14.90;12.10;;;;;;;12.68;100.00;101043.72;5021876;28;20211;-74
2022/10/20 09:21:31;;;;;;;17.85;12.43;;;;;;;12.73;100.00;101041.16;5034311;28;20032;-74
2022/10/20 09:24:02;;;;;;;19.25;11.80;;;;;;;12.73;100.00;101038.44;5018871;28;20036;-72
2022/10/20 09:26:33;;;;;;;16.00;12.07;;;;;;;12.74;100.00;101037.34;5025566;28;20021;-72
2022/10/20 09:29:08;;;;;;;18.48;11.50;;;;;;;12.76;100.00;101032.53;5027871;28;20041;-71
2022/10/20 09:31:34;;;;;;;18.35;11.85;;;;;;;12.76;100.00;101032.53;5032220;28;20025;-72
2022/10/20 09:34:00;;;;;;;20.83;12.68;;;;;;;12.79;100.00;101023.91;5015114;28;20377;-71
2022/10/20 09:36:35;;;;;;;16.98;12.07;;;;;;;12.82;100.00;101031.59;5013961;28;20026;-71
2022/10/20 09:39:00;;;;;;;17.83;11.73;;;;;;;12.82;100.00;101034.31;5015472;28;20118;-73
2022/10/20 09:41:30;;;;;;;15.43;11.50;;;;;;;12.84;100.00;101044.94;5013802;28;20018;-72
2022/10/20 09:43:59;;;;;;;18.92;12.80;;;;;;;12.85;100.00;101041.97;5016603;28;20057;-72
2022/10/20 09:46:29;;;;;;;18.90;12.23;;;;;;;12.85;100.00;101050.13;5034794;28;20033;-72
2022/10/20 09:48:55;;;;;;;22.55;12.02;;;;;;;12.85;100.00;101054.75;5018403;28;20045;-72
2022/10/20 09:51:26;;;;;;;21.77;12.57;;;;;;;12.88;100.00;101054.28;5014880;28;20030;-73
2022/10/20 09:53:59;;;;;;;16.27;11.93;;;;;;;12.89;100.00;101040.47;5015214;28;20029;-72
2022/10/20 09:56:27;;;;;;;16.42;11.73;;;;;;;12.87;100.00;101020.84;5014921;28;20026;-73
2022/10/20 09:58:54;;;;;;;21.15;10.80;;;;;;;12.89;100.00;101023.31;5015614;28;20457;-71
2022/10/20 10:01:20;;;;;;;19.02;11.48;;;;;;;12.88;100.00;101025.22;5024143;28;20041;-71
2022/10/20 10:03:48;;;;;;;19.00;11.82;;;;;;;12.88;100.00;101030.66;5015046;28;20022;-72
2022/10/20 10:06:32;;;;;;;16.05;12.05;;;;;;;12.92;100.00;101026.41;5024339;28;20338;-72
2022/10/20 10:09:00;;;;;;;17.80;12.25;;;;;;;12.88;100.00;101027.94;5034619;28;20033;-72
2022/10/20 10:11:32;;;;;;;18.38;12.52;;;;;;;12.88;100.00;101022.50;5033981;28;20338;-72
2022/10/20 10:13:57;;;;;;;20.00;12.07;;;;;;;12.87;100.00;101028.97;5032746;28;20033;-72
2022/10/20 10:16:23;;;;;;;21.52;13.18;;;;;;;12.86;100.00;101030.06;5034318;28;20025;-72
2022/10/20 10:19:01;;;;;;;21.35;13.27;;;;;;;12.85;100.00;101033.84;5020898;28;20370;-72
2022/10/20 10:21:28;;;;;;;21.23;13.25;;;;;;;12.83;100.00;101022.41;5025962;28;20031;-72
2022/10/20 10:24:02;;;;;;;19.40;12.88;;;;;;;12.82;100.00;101014.44;5014591;28;20017;-71
2022/10/20 10:26:33;;;;;;;19.95;13.50;;;;;;;12.81;100.00;101012.81;5020821;28;20029;-72
2022/10/20 10:28:59;;;;;;;22.20;13.00;;;;;;;12.79;100.00;101007.63;5014065;28;20049;-72
2022/10/20 10:31:25;;;;;;;18.98;13.48;;;;;;;12.81;100.00;101008.19;5014039;28;20083;-72
2022/10/20 10:34:05;;;;;;;22.02;14.65;;;;;;;12.81;100.00;100999.25;5030838;28;20032;-71
2022/10/20 10:36:34;;;;;;;21.50;13.90;;;;;;;12.81;100.00;100997.34;5014060;28;20026;-72
2022/10/20 10:39:01;;;;;;;19.40;13.90;;;;;;;12.80;100.00;100984.00;5014128;28;20022;-72
2022/10/20 10:41:55;;;;;;;20.77;13.95;;;;;;;12.81;100.00;100989.19;5023925;28;20108;-72
2022/10/20 10:44:47;;;;;;;21.55;15.07;;;;;;;12.79;100.00;100991.34;5013910;28;20025;-72
2022/10/20 10:48:01;;;;;;;21.00;15.38;;;;;;;12.83;100.00;100999.81;5002815;28;20049;-71
2022/10/20 10:50:38;;;;;;;20.80;14.68;;;;;;;12.81;100.00;100999.25;5008574;28;20308;-72
2022/10/20 10:53:31;;;;;;;23.00;14.80;;;;;;;12.81;100.00;101007.38;5015975;28;20036;-72
2022/10/20 10:56:15;;;;;;;24.90;15.05;;;;;;;12.82;100.00;101011.72;5016461;28;20040;-72
2022/10/20 10:59:02;;;;;;;22.98;15.88;;;;;;;12.81;100.00;101000.06;5027301;28;20025;-73
2022/10/20 11:01:56;;;;;;;24.67;16.02;;;;;;;12.82;100.00;100990.00;5028015;28;20053;-73
2022/10/20 11:04:31;;;;;;;21.70;15.52;;;;;;;12.82;100.00;100987.28;5013431;28;20018;-72
2022/10/20 11:07:03;;;;;;;22.30;15.88;;;;;;;12.80;100.00;100979.38;5012864;28;20018;-73
2022/10/20 11:09:35;;;;;;;25.63;16.67;;;;;;;12.82;100.00;100969.13;5020075;28;20025;-71
2022/10/20 11:12:30;;;;;;;26.35;15.85;;;;;;;12.81;100.00;100963.94;5032846;28;20457;-73